createdAt,value
2018-04-10T00:09:36.598Z,13.1
2018-04-10T00:19:36.204Z,12.9
2018-04-10T00:29:35.276Z,13
2018-04-10T00:39:34.215Z,13.2
2018-04-10T00:49:33.724Z,13.1
2018-04-10T00:59:33.001Z,13
2018-04-10T01:09:31.947Z,12.7
2018-04-10T01:19:31.106Z,12.6
2018-04-10T01:29:30.351Z,12.7
2018-04-10T01:39:29.601Z,12.4
2018-04-10T01:49:28.801Z,13.2
2018-04-10T01:59:27.947Z,12.9
2018-04-10T02:09:27.472Z,13.1
2018-04-10T02:19:26.650Z,12.9
2018-04-10T02:29:25.921Z,13
2018-04-10T02:39:25.092Z,12.9
2018-04-10T02:49:24.012Z,13.1
2018-04-10T02:59:23.230Z,13.2
2018-04-10T03:09:22.411Z,13
2018-04-10T03:19:21.895Z,13.1
2018-04-10T03:29:20.829Z,13.1
2018-04-10T03:39:20.080Z,12.8
2018-04-10T03:49:19.615Z,13.2
2018-04-10T03:59:18.493Z,13.2
2018-04-10T04:09:17.725Z,12.9
2018-04-10T04:19:16.915Z,13.3
2018-04-10T04:29:16.428Z,13.7
2018-04-10T04:39:15.329Z,13.9
2018-04-10T04:49:14.583Z,14.4
2018-04-10T04:59:14.025Z,13.9
2018-04-10T05:09:12.994Z,13.2
2018-04-10T05:19:12.425Z,13.3
2018-04-10T05:29:11.426Z,13.8
2018-04-10T05:39:10.577Z,14.6
2018-04-10T05:49:10.124Z,14
2018-04-10T05:59:08.999Z,14.4
2018-04-10T06:09:08.241Z,14.2
2018-04-10T06:19:07.404Z,14.5
2018-04-10T06:29:06.721Z,14.4
2018-04-10T06:39:05.965Z,14.5
2018-04-10T06:49:05.035Z,14.5
2018-04-10T06:59:04.294Z,14
2018-04-10T07:09:03.451Z,14.5
2018-04-10T07:19:02.740Z,14.1
2018-04-10T07:29:01.879Z,14.4
2018-04-10T07:39:01.095Z,14.4
2018-04-10T07:49:00.588Z,14.7
2018-04-10T07:58:59.842Z,14.6
2018-04-10T08:08:59.002Z,14.8
2018-04-10T08:18:57.919Z,14.7
2018-04-10T08:28:57.187Z,14.5
2018-04-10T08:38:56.357Z,14.5
2018-04-10T08:48:55.599Z,14.2
2018-04-10T08:58:54.754Z,14.1
2018-04-10T09:08:54.592Z,14.6
2018-04-10T09:18:53.470Z,14.3
2018-04-10T09:28:52.452Z,14.2
2018-04-10T09:38:51.947Z,14.3
2018-04-10T09:48:51.089Z,13.9
2018-04-10T09:58:50.029Z,14.4
2018-04-10T10:08:49.258Z,14.3
2018-04-10T10:18:48.527Z,13.8
2018-04-10T10:28:47.773Z,14.4
2018-04-10T10:38:46.867Z,14
2018-04-10T10:48:46.116Z,14.1
2018-04-10T10:58:45.306Z,14.5
2018-04-10T11:08:44.537Z,14
2018-04-10T11:18:43.705Z,14.3
2018-04-10T11:28:42.962Z,14.1
2018-04-10T11:38:42.435Z,14.6
2018-04-10T11:48:41.394Z,13.9
2018-04-10T11:58:40.644Z,14.3
2018-04-10T12:08:39.889Z,14.1
2018-04-10T12:18:38.965Z,14.3
2018-04-10T12:28:38.455Z,14.1
2018-04-10T12:38:37.404Z,14.6
2018-04-10T12:48:36.643Z,14
2018-04-10T12:58:35.824Z,13.8
2018-04-10T13:08:35.131Z,14.5
2018-04-10T13:18:34.263Z,14.3
2018-04-10T13:28:33.627Z,14.3
2018-04-10T13:38:32.960Z,14.2
2018-04-10T13:48:31.971Z,14.1
2018-04-10T13:58:31.103Z,13.8
2018-04-10T14:08:30.374Z,14.6
2018-04-10T14:18:29.526Z,14.4
2018-04-10T14:28:28.750Z,14
2018-04-10T14:38:28.015Z,14
2018-04-10T14:48:27.449Z,14.1
2018-04-10T14:58:26.363Z,14.5
2018-04-10T15:08:25.608Z,13.9
2018-04-10T15:18:24.846Z,14
2018-04-10T15:28:24.006Z,14.6
2018-04-10T15:38:23.557Z,14.1
2018-04-10T15:48:22.699Z,13.3
2018-04-10T15:58:21.962Z,13.5
2018-04-10T16:08:20.877Z,12.8
2018-04-10T16:18:20.112Z,13.2
2018-04-10T16:28:19.293Z,12.8
2018-04-10T16:38:18.542Z,12.9
2018-04-10T16:48:17.690Z,13.1
2018-04-10T16:58:16.903Z,13.1
2018-04-10T17:08:16.386Z,12.4
2018-04-10T17:18:15.598Z,12.6
2018-04-10T17:28:14.553Z,12.9
2018-04-10T17:38:13.748Z,12.6
2018-04-10T17:48:12.982Z,12.8
2018-04-10T17:58:12.444Z,12.9
2018-04-10T18:08:11.429Z,12.7
2018-04-10T18:18:10.590Z,13.1
2018-04-10T18:28:09.825Z,12.6
2018-04-10T18:38:09.076Z,13
2018-04-10T18:48:08.235Z,12.9
2018-04-10T18:58:07.732Z,12.7
2018-04-10T19:08:06.724Z,13.1
2018-04-10T19:29:04.702Z,13
2018-04-10T19:48:26.149Z,12.6
2018-04-10T19:58:25.272Z,13.1
2018-04-10T20:08:24.485Z,13.1
2018-04-10T20:18:23.740Z,12.4
2018-04-10T20:28:23.178Z,12.6
2018-04-10T20:38:22.202Z,13.1
2018-04-10T20:48:21.387Z,13
2018-04-10T20:58:20.592Z,12.6
2018-04-10T21:08:19.857Z,12.9
2018-04-10T21:18:19.030Z,12.5
2018-04-10T21:28:18.225Z,13
2018-04-10T21:38:17.519Z,12.6
2018-04-10T21:48:16.658Z,13
2018-04-10T21:58:15.984Z,13
2018-04-10T22:08:15.373Z,13.1
2018-04-10T22:18:14.358Z,13.2
2018-04-10T22:28:13.602Z,12.5
2018-04-10T22:38:12.746Z,12.6
2018-04-10T22:48:11.971Z,12.7
2018-04-10T22:58:11.114Z,12.4
2018-04-10T23:08:10.609Z,12.9
2018-04-10T23:18:09.547Z,12.8
2018-04-10T23:28:08.872Z,12.9
2018-04-10T23:38:08.269Z,13.2
2018-04-10T23:48:07.350Z,13
2018-04-10T23:58:06.402Z,12.9
